createdAt,value
2022-10-23T00:00:20.211Z,32.50
2022-10-23T00:01:20.097Z,36.10
2022-10-23T00:03:29.245Z,28.80
2022-10-23T00:04:30.195Z,33.80
2022-10-23T00:05:30.125Z,46.30
2022-10-23T00:06:30.059Z,33.90
2022-10-23T00:08:29.945Z,47.00
2022-10-23T00:09:29.861Z,61.90
2022-10-23T00:10:29.822Z,62.00
2022-10-23T00:11:29.758Z,74.00
2022-10-23T00:12:29.675Z,69.50
2022-10-23T00:13:29.619Z,57.40
2022-10-23T00:14:29.830Z,56.90
2022-10-23T00:15:29.499Z,51.90
2022-10-23T00:16:29.412Z,45.20
2022-10-23T00:17:29.367Z,52.60
2022-10-23T00:18:29.302Z,39.10
2022-10-23T00:19:29.237Z,52.00
2022-10-23T00:20:50.161Z,30.40
2022-10-23T00:21:29.108Z,36.50
2022-10-23T00:22:29.047Z,30.30
2022-10-23T00:23:28.981Z,24.10
2022-10-23T00:24:28.934Z,26.60
2022-10-23T00:25:28.843Z,48.20
2022-10-23T00:26:28.801Z,38.10
2022-10-23T00:27:28.739Z,58.20
2022-10-23T00:28:28.649Z,52.50
2022-10-23T00:29:28.576Z,48.20
2022-10-23T00:30:28.535Z,44.50
2022-10-23T00:31:28.470Z,38.70
2022-10-23T00:32:28.442Z,46.60
2022-10-23T00:33:28.337Z,31.00
2022-10-23T00:34:49.251Z,32.60
2022-10-23T00:35:28.207Z,28.90
2022-10-23T00:36:28.145Z,27.60
2022-10-23T00:37:28.071Z,37.90
2022-10-23T00:39:37.230Z,33.10
2022-10-23T00:40:38.198Z,39.40
2022-10-23T00:41:38.100Z,33.50
2022-10-23T00:42:38.038Z,61.20
2022-10-23T00:43:37.980Z,33.80
2022-10-23T00:44:37.893Z,36.00
2022-10-23T00:45:37.839Z,35.90
2022-10-23T00:46:37.779Z,45.80
2022-10-23T00:47:37.724Z,39.40
2022-10-23T00:48:37.653Z,46.30
2022-10-23T00:49:40.716Z,41.70
2022-10-23T00:50:37.863Z,64.20
2022-10-23T00:51:37.471Z,46.60
2022-10-23T00:52:37.398Z,33.50
2022-10-23T00:53:37.336Z,29.70
2022-10-23T00:54:37.270Z,42.30
2022-10-23T00:55:37.224Z,46.00
2022-10-23T00:57:46.380Z,39.50
2022-10-23T00:58:47.310Z,40.00
2022-10-23T00:59:47.231Z,46.10
2022-10-23T01:00:47.187Z,31.60
2022-10-23T01:01:47.254Z,25.10
2022-10-23T01:02:47.231Z,36.50
2022-10-23T01:03:46.976Z,21.70
2022-10-23T01:04:46.930Z,20.90
2022-10-23T01:06:46.796Z,23.70
2022-10-23T01:07:46.721Z,37.00
2022-10-23T01:08:46.692Z,35.90
2022-10-23T01:09:46.604Z,19.10
2022-10-23T01:10:46.541Z,32.10
2022-10-23T01:11:46.462Z,38.00
2022-10-23T01:12:46.403Z,31.80
2022-10-23T01:13:46.352Z,80.10
2022-10-23T01:16:25.224Z,39.40
2022-10-23T01:17:26.143Z,41.80
2022-10-23T01:18:26.093Z,30.60
2022-10-23T01:19:26.033Z,36.40
2022-10-23T01:20:25.973Z,49.90
2022-10-23T01:21:25.914Z,40.40
2022-10-23T01:22:25.851Z,26.00
2022-10-23T01:23:25.774Z,35.20
2022-10-23T01:24:25.696Z,42.80
2022-10-23T01:25:25.647Z,46.40
2022-10-23T01:26:25.593Z,34.70
2022-10-23T01:27:25.507Z,42.60
2022-10-23T01:28:25.445Z,46.20
2022-10-23T01:29:25.390Z,36.10
2022-10-23T01:30:25.312Z,48.60
2022-10-23T01:31:25.257Z,25.20
2022-10-23T01:32:25.228Z,39.10
2022-10-23T01:33:25.124Z,37.70
2022-10-23T01:34:25.053Z,32.20
2022-10-23T01:35:25.007Z,26.20
2022-10-23T01:36:24.935Z,27.50
2022-10-23T01:37:24.858Z,40.70
2022-10-23T01:38:24.823Z,38.50
2022-10-23T01:39:24.744Z,41.10
2022-10-23T01:40:24.684Z,47.90
2022-10-23T01:41:24.602Z,37.70
2022-10-23T01:42:24.542Z,43.40
2022-10-23T01:43:24.478Z,39.30
2022-10-23T01:44:24.539Z,46.80
2022-10-23T01:45:24.358Z,27.50
2022-10-23T01:46:24.303Z,32.50
2022-10-23T01:47:24.239Z,31.40
2022-10-23T01:48:24.182Z,31.10
2022-10-23T01:49:24.093Z,44.40
2022-10-23T01:52:02.988Z,24.40
2022-10-23T01:53:03.909Z,30.20
2022-10-23T01:54:03.849Z,25.40
2022-10-23T01:55:03.796Z,46.60
2022-10-23T01:56:03.757Z,32.40
2022-10-23T01:57:03.667Z,47.30
2022-10-23T01:58:03.587Z,50.00
2022-10-23T01:59:03.527Z,54.20
2022-10-23T02:00:03.473Z,54.70
2022-10-23T02:01:03.417Z,44.50
2022-10-23T02:02:03.511Z,28.60
2022-10-23T02:03:03.267Z,54.00
2022-10-23T02:04:03.246Z,44.00
2022-10-23T02:05:03.162Z,43.90
2022-10-23T02:06:03.091Z,38.60
2022-10-23T02:07:03.019Z,40.90
2022-10-23T02:08:02.966Z,49.10
2022-10-23T02:09:02.887Z,50.40
2022-10-23T02:10:02.824Z,57.70
2022-10-23T02:11:02.769Z,55.40
2022-10-23T02:12:02.690Z,42.10
2022-10-23T02:13:02.647Z,45.40
2022-10-23T02:14:02.581Z,42.90
2022-10-23T02:15:02.478Z,47.90
2022-10-23T02:16:02.454Z,47.50
2022-10-23T02:17:02.375Z,27.80
2022-10-23T02:18:02.306Z,38.60
2022-10-23T02:19:02.261Z,36.00
2022-10-23T02:20:02.205Z,31.40
2022-10-23T02:21:02.113Z,31.50
2022-10-23T02:22:02.062Z,33.80
2022-10-23T02:23:01.985Z,16.50
2022-10-23T02:24:01.940Z,45.70
2022-10-23T02:25:01.818Z,39.70
2022-10-23T02:26:22.732Z,39.40
2022-10-23T02:27:01.678Z,31.90
2022-10-23T02:28:01.634Z,23.30
2022-10-23T02:29:01.622Z,34.60
2022-10-23T02:30:01.558Z,28.60
2022-10-23T02:31:01.492Z,48.30
2022-10-23T02:32:01.435Z,35.10
2022-10-23T02:33:01.367Z,25.20
2022-10-23T02:34:01.285Z,30.40
2022-10-23T02:35:01.218Z,38.80
2022-10-23T02:36:01.174Z,47.00
2022-10-23T02:37:01.094Z,33.80
2022-10-23T02:38:01.067Z,43.10
2022-10-23T02:39:00.974Z,20.00
2022-10-23T02:40:00.901Z,48.60
2022-10-23T02:41:00.850Z,44.80
2022-10-23T02:42:00.781Z,39.60
2022-10-23T02:43:00.718Z,31.90
2022-10-23T02:44:00.671Z,23.90
2022-10-23T02:45:00.585Z,37.20
2022-10-23T02:46:00.530Z,29.10
2022-10-23T02:47:00.454Z,38.30
2022-10-23T02:48:00.398Z,23.20
2022-10-23T02:49:00.319Z,39.40
2022-10-23T02:50:00.281Z,37.30
2022-10-23T02:51:00.194Z,32.60
2022-10-23T02:52:00.143Z,49.30
2022-10-23T02:53:00.113Z,46.60
2022-10-23T02:54:00.030Z,36.50
2022-10-23T02:54:59.951Z,39.30
2022-10-23T02:55:59.907Z,35.80
2022-10-23T02:56:59.813Z,41.50
2022-10-23T02:57:59.744Z,43.40
2022-10-23T02:58:59.682Z,37.00
2022-10-23T02:59:59.618Z,19.40
2022-10-23T03:00:59.595Z,24.10
2022-10-23T03:01:59.690Z,22.20
2022-10-23T03:02:59.445Z,39.20
2022-10-23T03:03:59.363Z,31.40
2022-10-23T03:04:59.298Z,40.30
2022-10-23T03:05:59.238Z,30.60
2022-10-23T03:06:59.174Z,20.90
2022-10-23T03:07:59.121Z,25.10
2022-10-23T03:08:59.045Z,33.30
2022-10-23T03:09:58.996Z,22.40
2022-10-23T03:10:58.934Z,39.30
2022-10-23T03:11:58.870Z,46.70
2022-10-23T03:12:58.795Z,26.40
2022-10-23T03:13:58.736Z,46.70
2022-10-23T03:14:58.657Z,25.30
2022-10-23T03:15:58.591Z,33.30
2022-10-23T03:16:58.547Z,41.40
2022-10-23T03:17:58.481Z,45.60
2022-10-23T03:18:58.450Z,32.80
2022-10-23T03:21:07.568Z,43.00
2022-10-23T03:22:08.496Z,31.50
2022-10-23T03:23:08.439Z,32.00
2022-10-23T03:24:08.376Z,39.50
2022-10-23T03:25:08.295Z,34.70
2022-10-23T03:26:08.262Z,29.40
2022-10-23T03:27:08.188Z,25.30
2022-10-23T03:28:08.117Z,23.50
2022-10-23T03:29:08.041Z,25.50
2022-10-23T03:30:07.979Z,24.10
2022-10-23T03:31:07.924Z,25.70
2022-10-23T03:32:07.876Z,17.50
2022-10-23T03:33:07.789Z,26.80
2022-10-23T03:34:08.232Z,19.00
2022-10-23T03:35:07.660Z,22.50
2022-10-23T03:36:07.610Z,26.20
2022-10-23T03:37:07.541Z,29.00
2022-10-23T03:38:07.488Z,26.20
2022-10-23T03:39:07.397Z,38.80
2022-10-23T03:40:07.355Z,20.20
2022-10-23T03:41:07.283Z,36.60
2022-10-23T03:42:07.213Z,29.80
2022-10-23T03:43:07.157Z,31.60
2022-10-23T03:44:07.109Z,22.30
2022-10-23T03:45:07.029Z,29.40
2022-10-23T03:46:06.956Z,28.50
2022-10-23T03:47:06.891Z,25.30
2022-10-23T03:48:06.843Z,30.60
2022-10-23T03:49:06.758Z,17.20
2022-10-23T03:50:06.993Z,17.40
2022-10-23T03:51:06.650Z,27.60
2022-10-23T03:52:06.581Z,30.10
2022-10-23T03:53:06.521Z,19.30
2022-10-23T03:54:06.439Z,20.20
2022-10-23T03:55:06.415Z,26.80
2022-10-23T03:56:27.315Z,15.20
2022-10-23T03:57:06.256Z,14.90
2022-10-23T03:58:06.185Z,20.50
2022-10-23T03:59:06.143Z,15.10
2022-10-23T04:00:06.052Z,30.20
2022-10-23T04:01:06.093Z,30.50
2022-10-23T04:02:06.039Z,37.50
2022-10-23T04:03:05.868Z,20.90
2022-10-23T04:04:05.802Z,20.60
2022-10-23T04:05:05.751Z,28.70
2022-10-23T04:06:05.691Z,34.50
2022-10-23T04:07:05.612Z,18.20
2022-10-23T04:08:05.583Z,29.50
2022-10-23T04:09:05.579Z,31.20
2022-10-23T04:10:05.434Z,32.80
2022-10-23T04:11:05.355Z,31.60
2022-10-23T04:12:05.311Z,30.10
2022-10-23T04:13:05.237Z,20.20
2022-10-23T04:14:05.168Z,26.10
2022-10-23T04:15:05.101Z,32.00
2022-10-23T04:16:05.036Z,37.00
2022-10-23T04:17:04.964Z,18.00
2022-10-23T04:18:04.907Z,25.10
2022-10-23T04:19:04.842Z,27.20
2022-10-23T04:20:04.791Z,23.10
2022-10-23T04:21:04.724Z,27.10
2022-10-23T04:22:04.662Z,15.90
2022-10-23T04:23:04.588Z,22.00
2022-10-23T04:24:04.518Z,29.30
2022-10-23T04:25:04.469Z,32.10
2022-10-23T04:26:04.673Z,25.10
2022-10-23T04:27:04.346Z,23.80
2022-10-23T04:28:04.259Z,15.60
2022-10-23T04:29:04.221Z,30.30
2022-10-23T04:30:04.144Z,23.40
2022-10-23T04:31:04.071Z,22.30
2022-10-23T04:33:13.245Z,26.70
2022-10-23T04:34:14.164Z,23.10
2022-10-23T04:35:14.113Z,32.40
2022-10-23T04:36:14.036Z,20.20
2022-10-23T04:37:13.984Z,30.90
2022-10-23T04:38:13.924Z,20.40
2022-10-23T04:39:13.850Z,45.50
2022-10-23T04:40:13.785Z,18.00
2022-10-23T04:41:13.725Z,17.10
2022-10-23T04:42:13.721Z,31.20
2022-10-23T04:43:13.585Z,23.80
2022-10-23T04:44:13.549Z,29.40
2022-10-23T04:45:13.470Z,21.40
2022-10-23T04:46:13.393Z,17.20
2022-10-23T04:47:13.325Z,18.00
2022-10-23T04:48:13.278Z,20.10
2022-10-23T04:49:13.214Z,23.70
2022-10-23T04:51:52.171Z,27.30
2022-10-23T04:52:53.104Z,24.30
2022-10-23T04:53:53.045Z,23.40
2022-10-23T04:54:52.983Z,21.10
2022-10-23T04:55:52.919Z,16.90
2022-10-23T04:56:52.850Z,26.50
2022-10-23T04:57:52.791Z,21.40
2022-10-23T04:58:52.792Z,17.60
2022-10-23T04:59:52.645Z,33.10
2022-10-23T05:00:52.633Z,24.90
2022-10-23T05:01:52.565Z,32.10
2022-10-23T05:02:52.489Z,28.70
2022-10-23T05:03:52.393Z,26.20
2022-10-23T05:04:52.325Z,21.90
2022-10-23T05:05:52.260Z,35.60
2022-10-23T05:06:52.252Z,28.50
2022-10-23T05:07:52.151Z,46.60
2022-10-23T05:08:52.102Z,39.40
2022-10-23T05:09:52.021Z,93.40
2022-10-23T05:10:51.950Z,47.60
2022-10-23T05:11:51.892Z,36.10
2022-10-23T05:12:51.828Z,62.10
2022-10-23T05:13:51.750Z,60.10
2022-10-23T05:14:51.722Z,73.80
2022-10-23T05:15:51.625Z,105.30
2022-10-23T05:16:51.555Z,131.10
2022-10-23T05:17:51.502Z,142.60
2022-10-23T05:18:51.450Z,131.90
2022-10-23T05:19:51.372Z,175.80
2022-10-23T05:20:51.314Z,144.50
2022-10-23T05:21:51.232Z,201.40
2022-10-23T05:22:51.176Z,169.10
2022-10-23T05:23:51.131Z,174.30
2022-10-23T05:24:51.058Z,128.40
2022-10-23T05:25:50.983Z,124.30
2022-10-23T05:26:50.964Z,97.10
2022-10-23T05:27:50.861Z,68.00
2022-10-23T05:28:50.798Z,68.10
2022-10-23T05:29:50.733Z,52.80
2022-10-23T05:30:50.667Z,59.00
2022-10-23T05:31:50.549Z,46.10
2022-10-23T05:32:50.566Z,45.30
2022-10-23T05:33:50.419Z,62.70
2022-10-23T05:34:50.344Z,68.30
2022-10-23T05:35:50.291Z,46.00
2022-10-23T05:36:50.218Z,44.90
2022-10-23T05:37:50.169Z,51.00
2022-10-23T05:38:50.117Z,45.80
2022-10-23T05:39:50.031Z,24.80
2022-10-23T05:40:49.974Z,41.90
2022-10-23T05:41:49.909Z,31.20
2022-10-23T05:42:49.827Z,43.70
2022-10-23T05:43:49.775Z,44.30
2022-10-23T05:45:10.675Z,34.70
2022-10-23T05:45:49.644Z,56.30
2022-10-23T05:46:49.566Z,45.10
2022-10-23T05:47:49.541Z,42.70
2022-10-23T05:48:49.566Z,49.60
2022-10-23T05:49:49.406Z,52.50
2022-10-23T05:50:49.596Z,71.10
2022-10-23T05:51:49.256Z,161.00
2022-10-23T05:52:49.193Z,79.40
2022-10-23T05:53:49.114Z,51.20
2022-10-23T05:54:49.072Z,39.60
2022-10-23T05:55:49.007Z,43.90
2022-10-23T05:56:48.942Z,35.40
2022-10-23T05:57:48.862Z,57.50
2022-10-23T05:58:48.806Z,52.50
2022-10-23T05:59:48.728Z,43.70
2022-10-23T06:00:48.688Z,42.30
2022-10-23T06:01:48.749Z,35.20
2022-10-23T06:03:09.522Z,32.10
2022-10-23T06:03:48.486Z,37.60
2022-10-23T06:04:48.405Z,43.40
2022-10-23T06:05:48.366Z,33.30
2022-10-23T06:06:48.307Z,45.00
2022-10-23T06:07:48.218Z,40.50
2022-10-23T06:08:48.196Z,38.10
2022-10-23T06:09:48.091Z,50.20
2022-10-23T06:10:48.045Z,37.40
2022-10-23T06:11:47.961Z,37.30
2022-10-23T06:12:47.911Z,31.40
2022-10-23T06:13:47.878Z,49.70
2022-10-23T06:14:47.796Z,44.00
2022-10-23T06:15:47.718Z,55.30
2022-10-23T06:16:47.632Z,51.20
2022-10-23T06:17:47.585Z,62.90
2022-10-23T06:18:47.525Z,50.40
2022-10-23T06:19:47.451Z,61.40
2022-10-23T06:21:08.359Z,80.90
2022-10-23T06:21:47.314Z,56.20
2022-10-23T06:22:47.252Z,56.20
2022-10-23T06:23:47.184Z,62.70
2022-10-23T06:24:47.125Z,55.10
2022-10-23T06:25:47.053Z,38.40
2022-10-23T06:26:47.041Z,34.00
2022-10-23T06:27:46.929Z,32.70
2022-10-23T06:28:46.881Z,32.90
2022-10-23T06:29:46.812Z,29.00
2022-10-23T06:30:46.753Z,29.70
2022-10-23T06:31:46.669Z,30.90
2022-10-23T06:32:46.667Z,21.20
2022-10-23T06:33:46.549Z,31.80
2022-10-23T06:34:46.492Z,27.70
2022-10-23T06:35:46.414Z,39.50
2022-10-23T06:36:46.359Z,21.10
2022-10-23T06:37:46.324Z,29.80
2022-10-23T06:38:46.315Z,24.10
2022-10-23T06:39:46.167Z,37.70
2022-10-23T06:40:46.091Z,37.30
2022-10-23T06:41:46.025Z,31.10
2022-10-23T06:42:46.014Z,19.60
2022-10-23T06:43:45.927Z,27.40
2022-10-23T06:44:45.858Z,22.40
2022-10-23T06:45:45.778Z,19.70
2022-10-23T06:46:45.718Z,33.40
2022-10-23T06:47:45.773Z,19.80
2022-10-23T06:48:45.572Z,15.40
2022-10-23T06:49:45.502Z,16.00
2022-10-23T06:50:45.466Z,18.90
2022-10-23T06:51:45.373Z,19.30
2022-10-23T06:52:47.647Z,15.30
2022-10-23T06:53:45.245Z,19.60
2022-10-23T06:54:45.197Z,14.80
2022-10-23T06:55:45.137Z,16.30
2022-10-23T06:56:45.081Z,17.10
2022-10-23T06:57:45.401Z,20.10
2022-10-23T06:58:44.929Z,17.50
2022-10-23T06:59:44.879Z,14.60
2022-10-23T07:00:44.854Z,20.30
2022-10-23T07:01:44.959Z,14.10
2022-10-23T07:02:44.892Z,14.70
2022-10-23T07:03:44.618Z,12.50
2022-10-23T07:04:44.535Z,11.40
2022-10-23T07:05:44.492Z,52.20
2022-10-23T07:06:44.421Z,11.40
2022-10-23T07:07:44.359Z,12.80
2022-10-23T07:08:44.309Z,21.00
2022-10-23T07:09:44.243Z,57.10
2022-10-23T07:10:44.157Z,48.90
2022-10-23T07:11:44.104Z,43.60
2022-10-23T07:12:44.504Z,12.10
2022-10-23T07:13:43.956Z,155.80
2022-10-23T07:14:43.922Z,27.40
2022-10-23T07:15:43.845Z,54.60
2022-10-23T07:16:43.781Z,27.30
2022-10-23T07:17:43.699Z,22.60
2022-10-23T07:18:43.651Z,104.50
2022-10-23T07:19:43.573Z,12.50
2022-10-23T07:20:43.517Z,50.80
2022-10-23T07:21:43.463Z,33.20
2022-10-23T07:22:43.631Z,137.30
2022-10-23T07:23:43.334Z,71.30
2022-10-23T07:24:43.244Z,63.10
2022-10-23T07:25:43.186Z,72.20
2022-10-23T07:26:43.173Z,75.60
2022-10-23T07:27:43.259Z,47.00
2022-10-23T07:28:42.995Z,44.10
2022-10-23T07:29:42.940Z,26.10
2022-10-23T07:30:42.878Z,40.40
2022-10-23T07:31:42.815Z,83.30
2022-10-23T07:35:11.797Z,40.20
2022-10-23T07:36:12.668Z,44.20
2022-10-23T07:37:12.595Z,123.00
2022-10-23T07:38:12.533Z,215.40
2022-10-23T07:39:12.487Z,40.50
2022-10-23T07:40:12.429Z,13.60
2022-10-23T07:41:12.540Z,55.40
2022-10-23T07:42:12.272Z,37.40
2022-10-23T07:43:12.223Z,16.00
2022-10-23T07:44:12.148Z,11.00
2022-10-23T07:45:12.115Z,33.30
2022-10-23T07:46:12.032Z,9.00
2022-10-23T07:47:11.956Z,114.90
2022-10-23T07:48:11.907Z,57.80
2022-10-23T07:49:11.836Z,194.40
2022-10-23T07:50:11.769Z,66.90
2022-10-23T07:51:32.719Z,8.30
2022-10-23T07:52:11.635Z,164.00
2022-10-23T07:53:11.580Z,158.20
2022-10-23T07:54:11.526Z,30.20
2022-10-23T07:55:11.457Z,19.60
2022-10-23T07:56:11.393Z,7.10
2022-10-23T07:57:11.379Z,6.20
2022-10-23T07:58:11.252Z,6.40
2022-10-23T07:59:11.203Z,6.60
2022-10-23T08:00:11.189Z,10.00
2022-10-23T08:01:11.101Z,9.80
2022-10-23T08:02:11.062Z,6.30
2022-10-23T08:03:10.953Z,5.60
2022-10-23T08:04:10.895Z,9.10
2022-10-23T08:05:10.808Z,12.00
2022-10-23T08:06:10.737Z,7.80
2022-10-23T08:07:10.685Z,4.70
2022-10-23T08:08:10.624Z,11.90
2022-10-23T08:14:17.194Z,10.00
2022-10-23T08:15:18.154Z,5.00
2022-10-23T08:16:18.045Z,6.00
2022-10-23T08:17:17.994Z,9.00
2022-10-23T08:18:17.933Z,4.70
2022-10-23T08:19:17.878Z,8.80
2022-10-23T08:20:17.805Z,6.10
2022-10-23T08:21:17.762Z,7.70
2022-10-23T08:22:17.681Z,5.10
2022-10-23T08:23:17.597Z,5.50
2022-10-23T08:24:17.551Z,4.70
2022-10-23T08:25:19.032Z,5.00
2022-10-23T08:26:17.410Z,8.80
2022-10-23T08:27:17.370Z,5.40
2022-10-23T08:28:17.289Z,5.20
2022-10-23T08:29:17.211Z,6.60
2022-10-23T08:30:17.152Z,4.90
2022-10-23T08:31:17.097Z,8.90
2022-10-23T08:32:17.037Z,12.30
2022-10-23T08:33:17.045Z,8.80
2022-10-23T08:34:16.910Z,6.60
2022-10-23T08:35:16.846Z,7.80
2022-10-23T08:36:16.785Z,9.00
2022-10-23T08:37:16.698Z,9.50
2022-10-23T08:38:16.646Z,6.30
2022-10-23T08:39:16.613Z,5.60
2022-10-23T08:40:16.515Z,6.10
2022-10-23T08:41:16.474Z,5.10
2022-10-23T08:42:16.388Z,9.90
2022-10-23T08:43:16.323Z,11.90
2022-10-23T08:44:16.259Z,15.50
2022-10-23T08:45:16.203Z,10.00
2022-10-23T08:46:16.123Z,5.30
2022-10-23T08:47:16.083Z,10.10
2022-10-23T08:48:15.998Z,10.10
2022-10-23T08:49:15.951Z,5.50
2022-10-23T08:50:15.938Z,5.40
2022-10-23T08:51:15.846Z,4.60
2022-10-23T08:52:15.755Z,4.50
2022-10-23T08:53:15.678Z,5.30
2022-10-23T08:54:15.629Z,9.60
2022-10-23T08:55:15.561Z,7.00
2022-10-23T08:56:15.502Z,6.30
2022-10-23T08:57:15.456Z,4.10
2022-10-23T08:58:15.356Z,4.70
2022-10-23T08:59:15.300Z,4.30
2022-10-23T09:00:15.233Z,5.80
2022-10-23T09:01:15.261Z,4.10
2022-10-23T09:02:15.207Z,8.50
2022-10-23T09:04:24.231Z,8.50
2022-10-23T09:05:25.139Z,3.80
2022-10-23T09:06:25.079Z,3.80
2022-10-23T09:07:25.024Z,13.10
2022-10-23T09:08:24.967Z,17.00
2022-10-23T09:09:24.897Z,10.50
2022-10-23T09:10:24.837Z,4.50
2022-10-23T09:11:24.768Z,11.00
2022-10-23T09:12:24.697Z,6.00
2022-10-23T09:13:24.648Z,8.00
2022-10-23T09:14:24.575Z,7.10
2022-10-23T09:15:24.515Z,5.20
2022-10-23T09:16:24.455Z,9.50
2022-10-23T09:17:24.375Z,4.50
2022-10-23T09:18:24.312Z,4.00
2022-10-23T09:19:24.248Z,7.20
2022-10-23T09:20:24.200Z,6.80
2022-10-23T09:21:45.105Z,6.90
2022-10-23T09:22:24.054Z,4.40
2022-10-23T09:23:24.014Z,4.30
2022-10-23T09:24:23.947Z,10.20
2022-10-23T09:25:23.868Z,3.30
2022-10-23T09:26:23.811Z,3.50
2022-10-23T09:27:23.755Z,5.70
2022-10-23T09:28:23.677Z,18.10
2022-10-23T09:29:23.615Z,4.60
2022-10-23T09:30:23.567Z,10.40
2022-10-23T09:31:23.490Z,3.10
2022-10-23T09:32:23.434Z,4.70
2022-10-23T09:33:23.379Z,15.30
2022-10-23T09:34:23.314Z,24.10
2022-10-23T09:35:23.249Z,13.90
2022-10-23T09:36:23.188Z,5.00
2022-10-23T09:37:23.110Z,4.00
2022-10-23T09:38:23.040Z,4.30
2022-10-23T09:39:23.291Z,3.40
2022-10-23T09:40:22.918Z,12.50
2022-10-23T09:41:22.852Z,6.80
2022-10-23T09:42:22.820Z,4.40
2022-10-23T09:43:22.726Z,14.40
2022-10-23T09:44:22.666Z,20.00
2022-10-23T09:45:22.615Z,4.50
2022-10-23T09:46:22.547Z,6.40
2022-10-23T09:47:22.470Z,3.90
2022-10-23T09:48:22.432Z,8.50
2022-10-23T09:49:22.352Z,8.80
2022-10-23T09:50:22.280Z,9.20
2022-10-23T09:51:22.491Z,13.30
2022-10-23T09:52:22.159Z,5.40
2022-10-23T09:53:22.098Z,3.30
2022-10-23T09:54:22.041Z,4.80
2022-10-23T09:55:21.985Z,11.80
2022-10-23T09:56:24.593Z,6.70
2022-10-23T09:57:21.881Z,5.40
2022-10-23T09:58:21.775Z,7.20
2022-10-23T09:59:21.710Z,4.40
2022-10-23T10:00:21.665Z,4.10
2022-10-23T10:01:21.726Z,3.70
2022-10-23T10:02:21.572Z,7.80
2022-10-23T10:03:21.492Z,18.20
2022-10-23T10:04:21.408Z,5.40
2022-10-23T10:05:21.340Z,3.80
2022-10-23T10:06:21.281Z,3.10
2022-10-23T10:07:21.218Z,11.30
2022-10-23T10:08:21.144Z,4.10
2022-10-23T10:09:21.105Z,3.00
2022-10-23T10:10:21.047Z,3.00
2022-10-23T10:11:20.957Z,7.90
2022-10-23T10:12:20.893Z,4.20
2022-10-23T10:13:20.832Z,5.40
2022-10-23T10:14:20.788Z,14.10
2022-10-23T10:16:59.579Z,2.90
2022-10-23T10:18:00.530Z,2.20
2022-10-23T10:19:00.463Z,8.50
2022-10-23T10:20:03.867Z,11.40
2022-10-23T10:21:00.338Z,6.10
2022-10-23T10:22:00.255Z,14.30
2022-10-23T10:23:00.208Z,6.10
2022-10-23T10:24:00.127Z,17.20
2022-10-23T10:25:00.099Z,5.50
2022-10-23T10:25:59.999Z,9.50
2022-10-23T10:26:59.957Z,2.50
2022-10-23T10:27:59.898Z,4.60
2022-10-23T10:28:59.810Z,7.30
2022-10-23T10:29:59.752Z,2.40
2022-10-23T10:30:59.704Z,4.80
2022-10-23T10:31:59.622Z,8.90
2022-10-23T10:32:59.571Z,6.20
2022-10-23T10:33:59.514Z,2.60
2022-10-23T10:34:59.433Z,4.50
2022-10-23T10:35:59.368Z,4.10
2022-10-23T10:36:59.324Z,13.70
2022-10-23T10:37:59.246Z,4.30
2022-10-23T10:38:59.190Z,5.30
2022-10-23T10:39:59.131Z,8.70
2022-10-23T10:40:59.083Z,6.70
2022-10-23T10:41:59.003Z,8.40
2022-10-23T10:42:58.932Z,5.00
2022-10-23T10:43:58.878Z,5.40
2022-10-23T10:46:37.653Z,4.00
2022-10-23T10:47:38.582Z,2.70
2022-10-23T10:48:38.518Z,2.40
2022-10-23T10:49:38.466Z,7.40
2022-10-23T10:51:47.577Z,10.70
2022-10-23T10:52:49.389Z,7.10
2022-10-23T10:53:48.439Z,14.30
2022-10-23T10:54:48.359Z,16.70
2022-10-23T10:55:48.322Z,21.40
2022-10-23T10:56:48.262Z,7.20
2022-10-23T10:57:48.173Z,9.30
2022-10-23T10:58:48.116Z,5.00
2022-10-23T10:59:48.049Z,19.50
2022-10-23T11:00:48.059Z,6.00
2022-10-23T11:01:48.090Z,2.60
2022-10-23T11:02:47.866Z,8.40
2022-10-23T11:03:47.804Z,4.30
2022-10-23T11:04:47.753Z,6.80
2022-10-23T11:05:47.723Z,18.90
2022-10-23T11:06:47.603Z,3.90
2022-10-23T11:07:47.564Z,4.40
2022-10-23T11:09:56.663Z,2.10
2022-10-23T11:10:57.587Z,2.30
2022-10-23T11:11:57.570Z,6.90
2022-10-23T11:12:57.475Z,11.10
2022-10-23T11:13:57.413Z,7.80
2022-10-23T11:14:57.367Z,11.90
2022-10-23T11:15:57.290Z,7.90
2022-10-23T11:16:57.219Z,10.60
2022-10-23T11:17:57.160Z,17.50
2022-10-23T11:18:57.088Z,31.00
2022-10-23T11:19:57.022Z,16.00
2022-10-23T11:20:56.976Z,5.30
2022-10-23T11:21:56.918Z,2.20
2022-10-23T11:22:56.835Z,9.50
2022-10-23T11:23:56.816Z,6.30
2022-10-23T11:24:58.178Z,18.00
2022-10-23T11:25:56.659Z,7.00
2022-10-23T11:27:17.571Z,18.70
2022-10-23T11:27:58.141Z,3.20
2022-10-23T11:28:56.456Z,9.40
2022-10-23T11:29:56.411Z,6.00
2022-10-23T11:30:56.347Z,6.90
2022-10-23T11:31:56.263Z,3.40
2022-10-23T11:32:56.226Z,19.40
2022-10-23T11:33:56.138Z,8.10
2022-10-23T11:34:56.077Z,12.30
2022-10-23T11:35:56.023Z,16.60
2022-10-23T11:36:55.951Z,2.50
2022-10-23T11:37:55.899Z,14.40
2022-10-23T11:38:55.870Z,12.80
2022-10-23T11:39:55.773Z,52.10
2022-10-23T11:40:55.714Z,4.20
2022-10-23T11:41:55.659Z,18.50
2022-10-23T11:42:55.583Z,10.30
2022-10-23T11:43:55.510Z,14.30
2022-10-23T11:46:34.356Z,2.10
2022-10-23T11:47:39.607Z,2.20
2022-10-23T11:48:35.195Z,6.80
2022-10-23T11:49:35.135Z,3.70
2022-10-23T11:50:35.096Z,9.50
2022-10-23T11:51:35.008Z,9.90
2022-10-23T11:52:38.755Z,5.40
2022-10-23T11:53:34.889Z,10.20
2022-10-23T11:54:34.831Z,10.50
2022-10-23T11:55:34.768Z,16.70
2022-10-23T11:56:34.726Z,4.80
2022-10-23T11:57:34.647Z,2.50
2022-10-23T11:58:34.581Z,6.90
2022-10-23T11:59:34.508Z,14.40
2022-10-23T12:00:34.458Z,9.70
2022-10-23T12:01:34.496Z,3.70
2022-10-23T12:02:59.021Z,3.00
2022-10-23T12:03:34.268Z,3.40
2022-10-23T12:04:34.198Z,6.30
2022-10-23T12:05:34.148Z,7.60
2022-10-23T12:06:34.083Z,8.70
2022-10-23T12:07:34.020Z,5.70
2022-10-23T12:08:33.958Z,12.80
2022-10-23T12:09:33.893Z,9.90
2022-10-23T12:10:33.816Z,19.60
2022-10-23T12:11:33.757Z,8.90
2022-10-23T12:12:33.704Z,20.40
2022-10-23T12:13:33.640Z,11.70
2022-10-23T12:14:33.594Z,12.30
2022-10-23T12:15:33.503Z,10.70
2022-10-23T12:16:33.440Z,12.60
2022-10-23T12:17:33.394Z,11.50
2022-10-23T12:18:33.332Z,11.20
2022-10-23T12:19:33.255Z,15.10
2022-10-23T12:20:33.218Z,16.50
2022-10-23T12:21:33.137Z,9.50
2022-10-23T12:23:33.013Z,11.60
2022-10-23T12:24:32.951Z,10.80
2022-10-23T12:25:32.875Z,5.80
2022-10-23T12:26:32.836Z,8.10
2022-10-23T12:27:32.760Z,7.50
2022-10-23T12:28:32.720Z,4.10
2022-10-23T12:29:32.632Z,28.20
2022-10-23T12:30:32.570Z,8.10
2022-10-23T12:31:32.487Z,8.30
2022-10-23T12:32:32.459Z,11.70
2022-10-23T12:33:32.389Z,5.80
2022-10-23T12:34:32.330Z,8.40
2022-10-23T12:35:32.246Z,13.80
2022-10-23T12:36:32.189Z,2.60
2022-10-23T12:37:32.119Z,6.40
2022-10-23T12:40:10.949Z,7.30
2022-10-23T12:41:11.845Z,16.50
2022-10-23T12:42:11.798Z,23.60
2022-10-23T12:43:11.748Z,4.90
2022-10-23T12:44:11.678Z,9.90
2022-10-23T12:45:11.599Z,15.10
2022-10-23T12:46:14.125Z,12.40
2022-10-23T12:47:11.470Z,5.90
2022-10-23T12:48:11.413Z,5.30
2022-10-23T12:49:11.349Z,8.60
2022-10-23T12:50:11.564Z,14.00
2022-10-23T12:51:11.212Z,20.80
2022-10-23T12:52:11.150Z,2.90
2022-10-23T12:53:11.102Z,5.10
2022-10-23T12:54:11.037Z,5.50
2022-10-23T12:55:10.977Z,10.70
2022-10-23T12:56:10.934Z,15.10
2022-10-23T12:57:10.844Z,7.10
2022-10-23T12:58:10.796Z,2.30
2022-10-23T12:59:10.708Z,5.70
2022-10-23T13:00:10.648Z,6.30
2022-10-23T13:01:10.720Z,9.80
2022-10-23T13:02:10.682Z,5.40
2022-10-23T13:03:10.451Z,7.30
2022-10-23T13:04:10.462Z,3.50
2022-10-23T13:05:10.349Z,6.50
2022-10-23T13:06:10.263Z,12.60
2022-10-23T13:07:10.218Z,4.10
2022-10-23T13:08:10.177Z,23.40
2022-10-23T13:09:10.093Z,7.30
2022-10-23T13:10:10.036Z,6.80
2022-10-23T13:11:09.984Z,11.60
2022-10-23T13:12:09.896Z,4.40
2022-10-23T13:13:09.822Z,7.40
2022-10-23T13:14:09.803Z,3.90
2022-10-23T13:15:09.694Z,17.90
2022-10-23T13:16:09.645Z,29.50
2022-10-23T13:17:09.590Z,7.80
2022-10-23T13:18:09.510Z,2.80
2022-10-23T13:19:09.444Z,14.20
2022-10-23T13:20:09.406Z,6.80
2022-10-23T13:21:09.336Z,13.50
2022-10-23T13:22:09.268Z,6.70
2022-10-23T13:23:09.210Z,10.90
2022-10-23T13:24:09.128Z,5.40
2022-10-23T13:25:09.073Z,3.00
2022-10-23T13:26:09.049Z,4.00
2022-10-23T13:27:08.944Z,3.60
2022-10-23T13:28:08.875Z,6.00
2022-10-23T13:29:09.750Z,4.10
2022-10-23T13:30:10.748Z,14.30